createdAt,value
2023-03-14T00:00:16.035Z,98493.84
2023-03-14T00:02:44.965Z,98490.91
2023-03-14T00:05:13.813Z,98484.31
2023-03-14T00:07:42.902Z,98492.13
2023-03-14T00:10:15.865Z,98489.28
2023-03-14T00:12:45.192Z,98489.06
2023-03-14T00:15:14.857Z,98485.81
2023-03-14T00:17:46.239Z,98489.22
2023-03-14T00:20:15.468Z,98486.81
2023-03-14T00:22:44.475Z,98488.63
2023-03-14T00:25:14.428Z,98493.03
2023-03-14T00:27:43.236Z,98489.84
2023-03-14T00:30:15.219Z,98488.22
2023-03-14T00:32:44.574Z,98489.84
2023-03-14T00:35:13.478Z,98480.41
2023-03-14T00:37:42.674Z,98488.44
2023-03-14T00:40:12.065Z,98483.16
2023-03-14T00:42:41.409Z,98488.50
2023-03-14T00:45:12.052Z,98485.84
2023-03-14T00:47:41.248Z,98487.41
2023-03-14T00:50:10.829Z,98489.34
2023-03-14T00:52:41.209Z,98489.34
2023-03-14T00:55:11.418Z,98497.03
2023-03-14T00:57:40.208Z,98486.75
2023-03-14T01:00:15.497Z,98489.47
2023-03-14T01:02:48.039Z,98487.03
2023-03-14T01:05:21.412Z,98490.25
2023-03-14T01:07:53.009Z,98500.41
2023-03-14T01:10:24.853Z,98501.47
2023-03-14T01:12:57.492Z,98500.72
2023-03-14T01:15:28.334Z,98509.69
2023-03-14T01:17:59.487Z,98504.22
2023-03-14T01:20:32.590Z,98517.28
2023-03-14T01:23:02.428Z,98508.59
2023-03-14T01:25:32.263Z,98510.41
2023-03-14T01:28:02.787Z,98513.78
2023-03-14T01:30:33.438Z,98508.34
2023-03-14T01:33:03.494Z,98512.00
2023-03-14T01:35:33.543Z,98508.31
2023-03-14T01:38:03.575Z,98508.09
2023-03-14T01:40:33.503Z,98515.84
2023-03-14T01:43:16.214Z,98516.38
2023-03-14T01:46:24.733Z,98522.31
2023-03-14T01:49:17.585Z,98523.91
2023-03-14T01:52:03.534Z,98528.25
2023-03-14T01:54:38.764Z,98528.13
2023-03-14T01:57:23.190Z,98533.94
2023-03-14T01:59:58.966Z,98539.97
2023-03-14T02:02:30.891Z,98545.13
2023-03-14T02:05:02.626Z,98544.84
2023-03-14T02:07:56.120Z,98541.13
2023-03-14T02:10:41.900Z,98531.34
2023-03-14T02:13:13.300Z,98540.88
2023-03-14T02:16:03.070Z,98543.06
2023-03-14T02:18:44.967Z,98538.34
2023-03-14T02:21:44.786Z,98545.84
2023-03-14T02:24:19.710Z,98544.25
2023-03-14T02:27:18.907Z,98552.22
2023-03-14T02:29:55.028Z,98547.78
2023-03-14T02:32:26.458Z,98554.63
2023-03-14T02:35:00.201Z,98554.19
2023-03-14T02:37:38.368Z,98557.38
2023-03-14T02:40:09.103Z,98566.78
2023-03-14T02:42:39.749Z,98570.03
2023-03-14T02:45:12.299Z,98571.16
2023-03-14T02:47:56.298Z,98579.63
2023-03-14T02:50:33.274Z,98579.34
2023-03-14T02:53:03.385Z,98579.94
2023-03-14T02:55:34.515Z,98587.44
2023-03-14T02:58:10.290Z,98582.03
2023-03-14T03:00:40.401Z,98578.22
2023-03-14T03:03:12.895Z,98589.09
2023-03-14T03:05:44.768Z,98582.41
2023-03-14T03:08:14.238Z,98588.25
2023-03-14T03:10:44.285Z,98593.94
2023-03-14T03:13:14.220Z,98599.28
2023-03-14T03:15:44.851Z,98592.47
2023-03-14T03:18:14.740Z,98594.66
2023-03-14T03:20:47.334Z,98586.34
2023-03-14T03:23:17.370Z,98590.28
2023-03-14T03:25:52.350Z,98596.66
2023-03-14T03:28:22.953Z,98600.69
2023-03-14T03:30:53.951Z,98605.25
2023-03-14T03:33:25.824Z,98599.31
2023-03-14T03:35:56.783Z,98603.91
2023-03-14T03:38:32.294Z,98607.31
2023-03-14T03:41:11.233Z,98604.31
2023-03-14T03:43:41.808Z,98607.69
2023-03-14T03:46:13.769Z,98603.72
2023-03-14T03:48:43.741Z,98605.69
2023-03-14T03:51:17.532Z,98607.50
2023-03-14T03:53:47.597Z,98609.41
2023-03-14T03:56:22.522Z,98607.88
2023-03-14T03:58:53.228Z,98606.81
2023-03-14T04:01:23.210Z,98608.94
2023-03-14T04:03:56.914Z,98605.09
2023-03-14T04:06:28.177Z,98604.63
2023-03-14T04:09:00.974Z,98608.94
2023-03-14T04:11:39.938Z,98608.59
2023-03-14T04:14:29.398Z,98608.44
2023-03-14T04:17:25.400Z,98609.13
2023-03-14T04:19:56.052Z,98611.19
2023-03-14T04:22:33.665Z,98615.69
2023-03-14T04:25:05.574Z,98610.53
2023-03-14T04:27:39.205Z,98608.19
2023-03-14T04:30:17.494Z,98603.22
2023-03-14T04:32:53.221Z,98602.63
2023-03-14T04:35:26.448Z,98601.75
2023-03-14T04:38:05.470Z,98603.63
2023-03-14T04:40:38.586Z,98610.53
2023-03-14T04:43:11.624Z,98607.13
2023-03-14T04:45:47.429Z,98606.19
2023-03-14T04:48:16.857Z,98608.38
2023-03-14T04:50:45.638Z,98610.28
2023-03-14T04:53:15.133Z,98598.22
2023-03-14T04:55:51.776Z,98605.44
2023-03-14T04:58:23.513Z,98604.06
2023-03-14T05:00:53.873Z,98599.78
2023-03-14T05:04:00.927Z,98595.25
2023-03-14T05:06:50.123Z,98591.25
2023-03-14T05:09:36.481Z,98595.47
2023-03-14T05:12:43.627Z,98592.53
2023-03-14T05:15:44.527Z,98590.28
2023-03-14T05:18:45.111Z,98593.38
2023-03-14T05:21:39.321Z,98596.91
2023-03-14T05:24:37.707Z,98592.47
2023-03-14T05:27:41.906Z,98591.63
2023-03-14T05:30:35.568Z,98583.72
2023-03-14T05:33:07.716Z,98582.13
2023-03-14T05:35:55.370Z,98581.31
2023-03-14T05:38:42.800Z,98576.38
2023-03-14T05:41:31.865Z,98576.50
2023-03-14T05:44:19.146Z,98571.69
2023-03-14T05:46:57.304Z,98577.16
2023-03-14T05:49:44.822Z,98582.66
2023-03-14T05:52:33.796Z,98572.69
2023-03-14T05:55:11.080Z,98569.63
2023-03-14T05:57:56.158Z,98563.94
2023-03-14T06:00:36.747Z,98558.47
2023-03-14T06:03:28.789Z,98555.81
2023-03-14T06:05:57.952Z,98555.69
2023-03-14T06:08:27.609Z,98553.16
2023-03-14T06:10:56.660Z,98552.97
2023-03-14T06:13:30.536Z,98550.03
2023-03-14T06:16:03.154Z,98548.13
2023-03-14T06:18:32.947Z,98544.91
2023-03-14T06:21:02.111Z,98547.91
2023-03-14T06:23:33.665Z,98543.09
2023-03-14T06:26:03.710Z,98547.03
2023-03-14T06:28:33.175Z,98533.69
2023-03-14T06:31:04.197Z,98534.94
2023-03-14T06:33:40.380Z,98534.47
2023-03-14T06:36:10.611Z,98523.03
2023-03-14T06:38:43.048Z,98521.75
2023-03-14T06:41:12.624Z,98523.06
2023-03-14T06:43:44.594Z,98517.25
2023-03-14T06:46:18.028Z,98504.47
2023-03-14T06:48:50.422Z,98508.22
2023-03-14T06:51:20.303Z,98500.13
2023-03-14T06:53:50.509Z,98489.00
2023-03-14T06:56:22.529Z,98494.22
2023-03-14T06:58:52.255Z,98499.69
2023-03-14T07:01:26.263Z,98494.97
2023-03-14T07:03:59.491Z,98479.47
2023-03-14T07:06:31.339Z,98480.00
2023-03-14T07:09:01.780Z,98484.50
2023-03-14T07:11:32.188Z,98474.31
2023-03-14T07:14:01.506Z,98472.13
2023-03-14T07:16:33.362Z,98459.16
2023-03-14T07:19:03.579Z,98457.00
2023-03-14T07:21:34.789Z,98455.00
2023-03-14T07:24:09.635Z,98447.75
2023-03-14T07:26:39.577Z,98450.53
2023-03-14T07:29:08.945Z,98447.19
2023-03-14T07:31:38.673Z,98445.00
2023-03-14T07:34:07.983Z,98435.03
2023-03-14T07:36:40.928Z,98437.41
2023-03-14T07:39:10.374Z,98434.44
2023-03-14T07:42:02.933Z,98424.53
2023-03-14T07:44:48.594Z,98426.41
2023-03-14T07:47:18.028Z,98422.31
2023-03-14T07:49:47.234Z,98418.69
2023-03-14T07:52:16.454Z,98407.13
2023-03-14T07:54:45.281Z,98400.19
2023-03-14T07:57:14.274Z,98390.06
2023-03-14T07:59:43.213Z,98392.00
2023-03-14T08:02:15.950Z,98386.44
2023-03-14T08:04:45.377Z,98379.56
2023-03-14T08:07:14.245Z,98376.78
2023-03-14T08:09:43.711Z,98369.75
2023-03-14T08:12:12.627Z,98368.44
2023-03-14T08:14:41.525Z,98362.38
2023-03-14T08:17:11.037Z,98366.50
2023-03-14T08:19:40.115Z,98359.41
2023-03-14T08:22:08.858Z,98351.41
2023-03-14T08:24:38.000Z,98345.47
2023-03-14T08:27:08.791Z,98342.69
2023-03-14T08:29:38.776Z,98340.16
2023-03-14T08:32:08.021Z,98340.63
2023-03-14T08:34:37.205Z,98326.59
2023-03-14T08:37:10.866Z,98328.19
2023-03-14T08:39:45.445Z,98321.00
2023-03-14T08:42:14.153Z,98325.53
2023-03-14T08:44:43.632Z,98311.97
2023-03-14T08:47:12.624Z,98315.97
2023-03-14T08:49:44.350Z,98306.84
2023-03-14T08:52:13.712Z,98303.63
2023-03-14T08:54:48.989Z,98305.75
2023-03-14T08:57:18.277Z,98298.31
2023-03-14T08:59:46.977Z,98284.03
2023-03-14T09:02:16.625Z,98289.75
2023-03-14T09:04:46.501Z,98285.31
2023-03-14T09:07:15.520Z,98289.28
2023-03-14T09:09:44.252Z,98277.38
2023-03-14T09:12:14.122Z,98280.94
2023-03-14T09:14:42.786Z,98277.69
2023-03-14T09:17:11.812Z,98274.34
2023-03-14T09:19:40.637Z,98265.09
2023-03-14T09:22:09.431Z,98263.56
2023-03-14T09:24:38.520Z,98263.00
2023-03-14T09:27:07.659Z,98267.97
2023-03-14T09:29:39.576Z,98257.81
2023-03-14T09:32:08.515Z,98258.06
2023-03-14T09:34:37.586Z,98249.94
2023-03-14T09:37:06.972Z,98249.13
2023-03-14T09:39:35.715Z,98248.06
2023-03-14T09:42:08.455Z,98251.50
2023-03-14T09:44:44.902Z,98239.19
2023-03-14T09:47:16.451Z,98237.75
2023-03-14T09:49:45.454Z,98238.63
2023-03-14T09:52:19.064Z,98223.94
2023-03-14T09:54:54.967Z,98218.22
2023-03-14T09:57:26.823Z,98219.50
2023-03-14T10:00:09.870Z,98226.91
2023-03-14T10:02:39.398Z,98224.28
2023-03-14T10:05:17.900Z,98223.53
2023-03-14T10:07:46.957Z,98218.94
2023-03-14T10:10:21.050Z,98213.78
2023-03-14T10:12:58.342Z,98213.19
2023-03-14T10:15:32.828Z,98207.44
2023-03-14T10:18:06.154Z,98211.16
2023-03-14T10:20:40.817Z,98201.53
2023-03-14T10:23:26.139Z,98206.59
2023-03-14T10:26:26.148Z,98198.59
2023-03-14T10:29:03.540Z,98187.69
2023-03-14T10:34:25.292Z,98187.41
2023-03-14T10:37:08.534Z,98184.31
2023-03-14T10:39:54.364Z,98186.69
2023-03-14T10:42:36.026Z,98181.59
2023-03-14T10:45:09.587Z,98172.81
2023-03-14T10:47:50.033Z,98178.88
2023-03-14T10:50:31.964Z,98172.34
2023-03-14T10:53:07.886Z,98173.13
2023-03-14T10:55:44.737Z,98166.16
2023-03-14T10:58:24.343Z,98163.09
2023-03-14T11:01:02.687Z,98158.03
2023-03-14T11:03:36.026Z,98160.69
2023-03-14T11:06:14.922Z,98158.84
2023-03-14T11:09:09.694Z,98155.66
2023-03-14T11:11:42.064Z,98151.34
2023-03-14T11:14:34.354Z,98152.63
2023-03-14T11:17:14.962Z,98146.56
2023-03-14T11:19:43.992Z,98147.88
2023-03-14T11:22:42.106Z,98143.38
2023-03-14T11:25:22.015Z,98146.03
2023-03-14T11:28:18.584Z,98135.53
2023-03-14T11:31:01.046Z,98136.84
2023-03-14T11:34:14.045Z,98140.31
2023-03-14T11:37:30.439Z,98137.44
2023-03-14T11:40:08.853Z,98130.03
2023-03-14T11:42:38.160Z,98131.19
2023-03-14T11:45:17.138Z,98127.13
2023-03-14T11:47:50.652Z,98125.19
2023-03-14T11:50:25.324Z,98129.38
2023-03-14T11:53:05.904Z,98120.22
2023-03-14T11:55:40.861Z,98121.19
2023-03-14T11:58:19.021Z,98122.59
2023-03-14T12:00:51.077Z,98116.53
2023-03-14T12:03:32.567Z,98109.31
2023-03-14T12:06:04.613Z,98121.81
2023-03-14T12:08:50.046Z,98112.91
2023-03-14T12:11:46.681Z,98108.44
2023-03-14T12:14:28.775Z,98112.56
2023-03-14T12:17:17.589Z,98113.31
2023-03-14T12:19:49.001Z,98115.31
2023-03-14T12:22:37.301Z,98108.47
2023-03-14T12:25:17.173Z,98109.56
2023-03-14T12:27:50.586Z,98109.56
2023-03-14T12:30:43.635Z,98115.03
2023-03-14T12:33:12.515Z,98113.59
2023-03-14T12:35:51.329Z,98109.03
2023-03-14T12:38:38.248Z,98121.06
2023-03-14T12:41:37.575Z,98115.94
2023-03-14T12:44:31.297Z,98110.56
2023-03-14T12:47:17.045Z,98111.88
2023-03-14T12:49:51.430Z,98114.06
2023-03-14T12:52:47.347Z,98113.66
2023-03-14T12:55:31.296Z,98110.06
2023-03-14T12:58:00.227Z,98114.00
2023-03-14T13:00:37.926Z,98119.41
2023-03-14T13:03:29.953Z,98120.72
2023-03-14T13:06:01.436Z,98114.22
2023-03-14T13:08:40.549Z,98115.56
2023-03-14T13:11:22.105Z,98120.13
2023-03-14T13:13:58.377Z,98126.75
2023-03-14T13:16:29.818Z,98122.66
2023-03-14T13:19:25.664Z,98124.09
2023-03-14T13:22:03.779Z,98123.50
2023-03-14T13:24:36.819Z,98130.09
2023-03-14T13:27:05.881Z,98131.88
2023-03-14T13:29:35.055Z,98133.25
2023-03-14T13:32:20.868Z,98131.97
2023-03-14T13:34:50.629Z,98145.13
2023-03-14T13:37:23.660Z,98144.06
2023-03-14T13:39:54.438Z,98148.84
2023-03-14T13:42:28.044Z,98145.50
2023-03-14T13:44:58.980Z,98146.91
2023-03-14T13:47:28.911Z,98155.06
2023-03-14T13:49:58.037Z,98141.75
2023-03-14T13:52:40.395Z,98147.25
2023-03-14T13:55:17.986Z,98152.06
2023-03-14T13:57:49.669Z,98148.31
2023-03-14T14:00:29.686Z,98158.50
2023-03-14T14:03:02.793Z,98158.53
2023-03-14T14:05:33.956Z,98150.44
2023-03-14T14:08:06.303Z,98153.56
2023-03-14T14:10:38.279Z,98159.56
2023-03-14T14:13:12.550Z,98158.13
2023-03-14T14:15:49.196Z,98157.94
2023-03-14T14:18:23.165Z,98153.50
2023-03-14T14:20:52.493Z,98159.63
2023-03-14T14:23:28.555Z,98164.28
2023-03-14T14:25:59.783Z,98168.09
2023-03-14T14:28:40.282Z,98162.81
2023-03-14T14:31:24.885Z,98165.63
2023-03-14T14:34:06.338Z,98166.25
2023-03-14T14:36:54.017Z,98168.25
2023-03-14T14:39:28.132Z,98168.00
2023-03-14T14:41:57.380Z,98167.69
2023-03-14T14:44:28.884Z,98171.78
2023-03-14T14:47:00.900Z,98178.94
2023-03-14T14:49:35.230Z,98184.44
2023-03-14T14:52:18.231Z,98189.09
2023-03-14T14:54:48.613Z,98187.44
2023-03-14T14:57:29.079Z,98183.22
2023-03-14T15:00:02.986Z,98178.00
2023-03-14T15:02:47.339Z,98186.94
2023-03-14T15:05:18.910Z,98192.97
2023-03-14T15:07:48.530Z,98193.41
2023-03-14T15:10:25.632Z,98188.13
2023-03-14T15:12:54.856Z,98186.88
2023-03-14T15:15:23.740Z,98192.56
2023-03-14T15:17:52.986Z,98198.91
2023-03-14T15:20:25.312Z,98193.84
2023-03-14T15:22:54.662Z,98194.16
2023-03-14T15:25:43.864Z,98194.56
2023-03-14T15:28:30.469Z,98195.06
2023-03-14T15:31:01.081Z,98195.91
2023-03-14T15:33:30.872Z,98195.50
2023-03-14T15:35:59.641Z,98203.69
2023-03-14T15:38:28.604Z,98195.81
2023-03-14T15:40:57.493Z,98194.44
2023-03-14T15:43:26.405Z,98192.88
2023-03-14T15:45:55.166Z,98194.44
2023-03-14T15:48:24.909Z,98195.50
2023-03-14T15:50:53.624Z,98193.16
2023-03-14T15:53:22.455Z,98191.88
2023-03-14T15:55:52.842Z,98185.91
2023-03-14T15:58:22.665Z,98181.38
2023-03-14T16:00:52.228Z,98193.41
2023-03-14T16:03:21.297Z,98190.91
2023-03-14T16:05:50.311Z,98188.69
2023-03-14T16:08:19.086Z,98186.75
2023-03-14T16:10:48.673Z,98190.03
2023-03-14T16:13:17.898Z,98175.94
2023-03-14T16:16:05.195Z,98185.50
2023-03-14T16:18:36.446Z,98182.75
2023-03-14T16:21:14.465Z,98180.44
2023-03-14T16:23:43.831Z,98178.94
2023-03-14T16:26:16.442Z,98178.22
2023-03-14T16:28:46.753Z,98179.75
2023-03-14T16:31:22.248Z,98179.94
2023-03-14T16:33:51.466Z,98176.75
2023-03-14T16:36:20.458Z,98176.97
2023-03-14T16:38:50.631Z,98176.41
2023-03-14T16:41:21.669Z,98174.69
2023-03-14T16:43:53.195Z,98173.13
2023-03-14T16:46:23.274Z,98172.28
2023-03-14T16:48:52.641Z,98170.25
2023-03-14T16:51:22.390Z,98170.25
2023-03-14T16:53:51.884Z,98171.19
2023-03-14T16:56:21.224Z,98174.72
2023-03-14T16:58:52.233Z,98166.53
2023-03-14T17:01:21.987Z,98171.00
2023-03-14T17:03:53.071Z,98168.38
2023-03-14T17:06:27.480Z,98165.75
2023-03-14T17:08:58.706Z,98161.00
2023-03-14T17:11:27.628Z,98167.28
2023-03-14T17:13:56.436Z,98166.53
2023-03-14T17:16:25.424Z,98159.78
2023-03-14T17:18:54.211Z,98167.84
2023-03-14T17:21:24.988Z,98170.69
2023-03-14T17:23:54.123Z,98160.50
2023-03-14T17:26:23.660Z,98172.19
2023-03-14T17:28:52.968Z,98162.63
2023-03-14T17:31:24.681Z,98161.84
2023-03-14T17:33:54.175Z,98160.84
2023-03-14T17:36:31.048Z,98159.00
2023-03-14T17:39:00.336Z,98166.94
2023-03-14T17:41:29.795Z,98158.31
2023-03-14T17:43:58.993Z,98156.72
2023-03-14T17:46:28.137Z,98156.06
2023-03-14T17:48:57.090Z,98156.34
2023-03-14T17:51:25.929Z,98156.59
2023-03-14T17:53:54.871Z,98161.84
2023-03-14T17:56:23.523Z,98153.72
2023-03-14T17:58:53.371Z,98156.44
2023-03-14T18:01:22.785Z,98150.56
2023-03-14T18:03:57.181Z,98154.19
2023-03-14T18:06:28.093Z,98143.69
2023-03-14T18:08:57.848Z,98138.63
2023-03-14T18:11:27.299Z,98140.25
2023-03-14T18:13:56.229Z,98138.56
2023-03-14T18:16:25.164Z,98136.22
2023-03-14T18:18:54.924Z,98138.09
2023-03-14T18:21:23.912Z,98140.25
2023-03-14T18:23:52.678Z,98145.75
2023-03-14T18:26:22.424Z,98144.63
2023-03-14T18:28:51.580Z,98144.75
2023-03-14T18:31:26.046Z,98151.13
2023-03-14T18:33:57.882Z,98154.47
2023-03-14T18:36:27.752Z,98158.56
2023-03-14T18:38:57.559Z,98157.63
2023-03-14T18:41:27.802Z,98152.31
2023-03-14T18:43:56.697Z,98151.81
2023-03-14T18:46:25.559Z,98145.38
2023-03-14T18:48:57.755Z,98149.94
2023-03-14T18:51:29.839Z,98154.81
2023-03-14T18:54:09.984Z,98160.16
2023-03-14T18:56:42.324Z,98151.81
2023-03-14T18:59:15.273Z,98149.28
2023-03-14T19:01:44.461Z,98148.25
2023-03-14T19:04:13.403Z,98148.72
2023-03-14T19:06:42.686Z,98144.09
2023-03-14T19:09:16.228Z,98147.28
2023-03-14T19:11:45.317Z,98126.88
2023-03-14T19:14:16.806Z,98135.66
2023-03-14T19:16:46.121Z,98140.50
2023-03-14T19:19:15.470Z,98136.97
2023-03-14T19:21:44.459Z,98140.31
2023-03-14T19:24:19.488Z,98135.00
2023-03-14T19:26:48.880Z,98135.16
2023-03-14T19:29:18.252Z,98143.78
2023-03-14T19:31:47.410Z,98142.09
2023-03-14T19:34:16.158Z,98147.88
2023-03-14T19:36:45.175Z,98144.03
2023-03-14T19:39:13.949Z,98149.03
2023-03-14T19:41:42.898Z,98152.06
2023-03-14T19:44:14.212Z,98153.41
2023-03-14T19:46:43.089Z,98151.59
2023-03-14T19:49:12.381Z,98153.06
2023-03-14T19:51:42.655Z,98157.06
2023-03-14T19:54:11.641Z,98147.09
2023-03-14T19:56:41.236Z,98138.41
2023-03-14T19:59:10.402Z,98150.75
2023-03-14T20:01:39.649Z,98159.50
2023-03-14T20:04:08.859Z,98155.28
2023-03-14T20:06:37.974Z,98151.91
2023-03-14T20:09:06.968Z,98155.88
2023-03-14T20:11:41.215Z,98146.50
2023-03-14T20:14:10.992Z,98152.41
2023-03-14T20:16:40.136Z,98150.31
2023-03-14T20:19:11.327Z,98149.56
2023-03-14T20:21:40.344Z,98155.59
2023-03-14T20:24:09.311Z,98152.16
2023-03-14T20:26:39.417Z,98154.00
2023-03-14T20:29:08.559Z,98148.72
2023-03-14T20:31:39.003Z,98152.53
2023-03-14T20:34:08.194Z,98152.38
2023-03-14T20:36:37.257Z,98144.94
2023-03-14T20:39:06.628Z,98142.84
2023-03-14T20:41:37.887Z,98145.44
2023-03-14T20:44:09.851Z,98147.47
2023-03-14T20:46:39.618Z,98142.09
2023-03-14T20:49:08.622Z,98140.56
2023-03-14T20:51:37.648Z,98139.63
2023-03-14T20:54:08.421Z,98142.25
2023-03-14T20:56:37.310Z,98135.50
2023-03-14T20:59:06.285Z,98132.03
2023-03-14T21:04:20.970Z,98141.13
2023-03-14T21:06:49.767Z,98130.59
2023-03-14T21:09:18.634Z,98131.97
2023-03-14T21:11:48.149Z,98134.06
2023-03-14T21:14:20.774Z,98130.59
2023-03-14T21:16:50.044Z,98130.09
2023-03-14T21:19:19.119Z,98136.34
2023-03-14T21:21:48.291Z,98139.19
2023-03-14T21:24:17.626Z,98142.53
2023-03-14T21:26:47.624Z,98134.63
2023-03-14T21:29:16.428Z,98147.88
2023-03-14T21:31:45.527Z,98140.34
2023-03-14T21:34:14.529Z,98138.66
2023-03-14T21:36:43.726Z,98138.53
2023-03-14T21:39:12.503Z,98140.72
2023-03-14T21:41:41.417Z,98138.94
2023-03-14T21:44:10.178Z,98147.47
2023-03-14T21:46:39.152Z,98145.44
2023-03-14T21:49:07.871Z,98150.66
2023-03-14T21:51:36.985Z,98155.97
2023-03-14T21:54:10.983Z,98153.13
2023-03-14T21:56:40.181Z,98151.63
2023-03-14T21:59:09.284Z,98153.22
2023-03-14T22:01:38.298Z,98148.38
2023-03-14T22:04:07.184Z,98148.53
2023-03-14T22:06:36.114Z,98152.53
2023-03-14T22:09:05.113Z,98153.53
2023-03-14T22:11:34.086Z,98153.13
2023-03-14T22:14:02.815Z,98151.28
2023-03-14T22:16:31.848Z,98143.56
2023-03-14T22:19:00.807Z,98148.63
2023-03-14T22:21:29.688Z,98142.69
2023-03-14T22:23:58.485Z,98146.06
2023-03-14T22:26:27.457Z,98145.00
2023-03-14T22:28:56.148Z,98144.56
2023-03-14T22:31:25.388Z,98150.97
2023-03-14T22:33:54.243Z,98145.09
2023-03-14T22:36:23.281Z,98142.38
2023-03-14T22:38:51.989Z,98143.72
2023-03-14T22:41:20.958Z,98140.25
2023-03-14T22:43:50.886Z,98139.34
2023-03-14T22:46:19.929Z,98142.53
2023-03-14T22:48:48.705Z,98136.94
2023-03-14T22:51:17.699Z,98138.75
2023-03-14T22:53:46.993Z,98135.94
2023-03-14T22:56:15.936Z,98135.00
2023-03-14T22:58:44.653Z,98138.47
2023-03-14T23:01:14.610Z,98136.72
2023-03-14T23:03:43.421Z,98142.47
2023-03-14T23:06:12.483Z,98141.63
2023-03-14T23:08:41.125Z,98141.56
2023-03-14T23:11:10.371Z,98151.34
2023-03-14T23:13:39.048Z,98152.06
2023-03-14T23:16:09.139Z,98148.38
2023-03-14T23:18:40.747Z,98157.28
2023-03-14T23:21:13.162Z,98151.06
2023-03-14T23:23:42.711Z,98148.47
2023-03-14T23:26:12.771Z,98156.81
2023-03-14T23:28:43.470Z,98158.34
2023-03-14T23:31:15.363Z,98164.47
2023-03-14T23:33:46.071Z,98172.16
2023-03-14T23:36:16.614Z,98170.75
2023-03-14T23:38:47.065Z,98173.69
2023-03-14T23:41:16.663Z,98175.03
2023-03-14T23:43:49.565Z,98180.81
2023-03-14T23:46:18.575Z,98180.25
2023-03-14T23:48:47.613Z,98179.56
2023-03-14T23:51:17.621Z,98176.88
2023-03-14T23:53:46.301Z,98185.97
2023-03-14T23:56:16.488Z,98177.59
2023-03-14T23:58:45.631Z,98185.69
